sensor_id;sensor_type;location;lat;lon;timestamp;P1;durP1;ratioP1;P2;durP2;ratioP2
47882;SDS011;37739;50.350;7.578;2022-07-15T00:01:46;1.77;;;1.40;;
47882;SDS011;37739;50.350;7.578;2022-07-15T00:04:11;3.20;;;1.50;;
47882;SDS011;37739;50.350;7.578;2022-07-15T00:06:38;2.57;;;1.50;;
47882;SDS011;37739;50.350;7.578;2022-07-15T00:09:04;2.30;;;1.23;;
47882;SDS011;37739;50.350;7.578;2022-07-15T00:11:31;1.60;;;1.13;;
47882;SDS011;37739;50.350;7.578;2022-07-15T00:13:57;2.90;;;1.60;;
47882;SDS011;37739;50.350;7.578;2022-07-15T00:16:22;1.50;;;1.40;;
47882;SDS011;37739;50.350;7.578;2022-07-15T00:18:50;2.80;;;1.30;;
47882;SDS011;37739;50.350;7.578;2022-07-15T00:21:15;1.97;;;1.43;;
47882;SDS011;37739;50.350;7.578;2022-07-15T00:23:40;1.70;;;1.40;;
47882;SDS011;37739;50.350;7.578;2022-07-15T00:26:08;2.37;;;1.50;;
47882;SDS011;37739;50.350;7.578;2022-07-15T00:28:34;2.77;;;1.73;;
47882;SDS011;37739;50.350;7.578;2022-07-15T00:31:00;2.90;;;1.70;;
47882;SDS011;37739;50.350;7.578;2022-07-15T00:33:26;2.00;;;1.10;;
47882;SDS011;37739;50.350;7.578;2022-07-15T00:35:51;1.93;;;1.23;;
47882;SDS011;37739;50.350;7.578;2022-07-15T00:38:19;3.00;;;1.20;;
47882;SDS011;37739;50.350;7.578;2022-07-15T00:40:48;2.70;;;1.50;;
47882;SDS011;37739;50.350;7.578;2022-07-15T00:43:15;2.27;;;1.50;;
47882;SDS011;37739;50.350;7.578;2022-07-15T00:45:45;2.80;;;1.40;;
47882;SDS011;37739;50.350;7.578;2022-07-15T00:48:11;3.57;;;1.43;;
47882;SDS011;37739;50.350;7.578;2022-07-15T00:50:43;2.43;;;1.33;;
47882;SDS011;37739;50.350;7.578;2022-07-15T00:53:18;2.67;;;1.57;;
47882;SDS011;37739;50.350;7.578;2022-07-15T00:55:46;2.40;;;1.40;;
47882;SDS011;37739;50.350;7.578;2022-07-15T00:58:17;2.97;;;1.60;;
47882;SDS011;37739;50.350;7.578;2022-07-15T01:00:46;2.00;;;1.50;;
47882;SDS011;37739;50.350;7.578;2022-07-15T01:03:13;2.00;;;1.57;;
47882;SDS011;37739;50.350;7.578;2022-07-15T01:05:44;1.90;;;1.00;;
47882;SDS011;37739;50.350;7.578;2022-07-15T01:08:11;1.87;;;1.40;;
47882;SDS011;37739;50.350;7.578;2022-07-15T01:10:37;5.17;;;1.50;;
47882;SDS011;37739;50.350;7.578;2022-07-15T01:13:09;1.90;;;1.30;;
47882;SDS011;37739;50.350;7.578;2022-07-15T01:15:36;2.30;;;1.50;;
47882;SDS011;37739;50.350;7.578;2022-07-15T01:18:02;1.23;;;1.13;;
47882;SDS011;37739;50.350;7.578;2022-07-15T01:20:30;2.30;;;1.43;;
47882;SDS011;37739;50.350;7.578;2022-07-15T01:22:56;2.60;;;1.43;;
47882;SDS011;37739;50.350;7.578;2022-07-15T01:25:24;3.03;;;1.50;;
47882;SDS011;37739;50.350;7.578;2022-07-15T01:27:51;2.73;;;1.60;;
47882;SDS011;37739;50.350;7.578;2022-07-15T01:30:16;2.40;;;1.40;;
47882;SDS011;37739;50.350;7.578;2022-07-15T01:32:42;2.33;;;1.50;;
47882;SDS011;37739;50.350;7.578;2022-07-15T01:35:07;2.87;;;1.53;;
47882;SDS011;37739;50.350;7.578;2022-07-15T01:37:33;3.43;;;1.97;;
47882;SDS011;37739;50.350;7.578;2022-07-15T01:40:01;1.80;;;1.50;;
47882;SDS011;37739;50.350;7.578;2022-07-15T01:42:26;3.07;;;2.10;;
47882;SDS011;37739;50.350;7.578;2022-07-15T01:44:51;2.53;;;1.57;;
47882;SDS011;37739;50.350;7.578;2022-07-15T01:47:19;3.40;;;1.83;;
47882;SDS011;37739;50.350;7.578;2022-07-15T01:49:45;2.47;;;1.50;;
47882;SDS011;37739;50.350;7.578;2022-07-15T01:52:12;3.20;;;1.67;;
47882;SDS011;37739;50.350;7.578;2022-07-15T01:54:40;2.50;;;1.50;;
47882;SDS011;37739;50.350;7.578;2022-07-15T01:57:07;3.17;;;2.10;;
47882;SDS011;37739;50.350;7.578;2022-07-15T01:59:35;2.30;;;1.80;;
47882;SDS011;37739;50.350;7.578;2022-07-15T02:02:03;3.67;;;1.50;;
47882;SDS011;37739;50.350;7.578;2022-07-15T02:04:33;1.70;;;1.60;;
47882;SDS011;37739;50.350;7.578;2022-07-15T02:07:01;1.77;;;1.60;;
47882;SDS011;37739;50.350;7.578;2022-07-15T02:09:27;2.70;;;1.63;;
47882;SDS011;37739;50.350;7.578;2022-07-15T02:11:55;2.00;;;1.30;;
47882;SDS011;37739;50.350;7.578;2022-07-15T02:14:23;1.60;;;1.50;;
47882;SDS011;37739;50.350;7.578;2022-07-15T02:16:50;2.87;;;1.40;;
47882;SDS011;37739;50.350;7.578;2022-07-15T02:19:21;2.37;;;1.50;;
47882;SDS011;37739;50.350;7.578;2022-07-15T02:21:46;3.60;;;1.87;;
47882;SDS011;37739;50.350;7.578;2022-07-15T02:24:12;2.20;;;1.40;;
47882;SDS011;37739;50.350;7.578;2022-07-15T02:26:38;2.47;;;1.40;;
47882;SDS011;37739;50.350;7.578;2022-07-15T02:29:04;2.80;;;1.40;;
47882;SDS011;37739;50.350;7.578;2022-07-15T02:31:29;2.33;;;1.40;;
47882;SDS011;37739;50.350;7.578;2022-07-15T02:33:55;1.60;;;1.10;;
47882;SDS011;37739;50.350;7.578;2022-07-15T02:36:20;3.37;;;1.60;;
47882;SDS011;37739;50.350;7.578;2022-07-15T02:38:48;3.80;;;1.50;;
47882;SDS011;37739;50.350;7.578;2022-07-15T02:41:16;1.93;;;1.33;;
47882;SDS011;37739;50.350;7.578;2022-07-15T02:43:41;2.07;;;1.20;;
47882;SDS011;37739;50.350;7.578;2022-07-15T02:46:07;2.07;;;1.37;;
47882;SDS011;37739;50.350;7.578;2022-07-15T02:48:34;3.70;;;1.80;;
47882;SDS011;37739;50.350;7.578;2022-07-15T02:51:02;2.37;;;1.60;;
47882;SDS011;37739;50.350;7.578;2022-07-15T02:53:28;2.73;;;1.40;;
47882;SDS011;37739;50.350;7.578;2022-07-15T02:55:56;1.47;;;1.27;;
47882;SDS011;37739;50.350;7.578;2022-07-15T02:58:24;1.97;;;1.33;;
47882;SDS011;37739;50.350;7.578;2022-07-15T03:00:50;5.10;;;1.80;;
47882;SDS011;37739;50.350;7.578;2022-07-15T03:03:15;2.07;;;1.17;;
47882;SDS011;37739;50.350;7.578;2022-07-15T03:05:41;2.50;;;1.20;;
47882;SDS011;37739;50.350;7.578;2022-07-15T03:08:06;4.00;;;1.80;;
47882;SDS011;37739;50.350;7.578;2022-07-15T03:10:32;3.33;;;1.57;;
47882;SDS011;37739;50.350;7.578;2022-07-15T03:12:57;8.70;;;1.90;;
47882;SDS011;37739;50.350;7.578;2022-07-15T03:15:22;2.30;;;1.20;;
47882;SDS011;37739;50.350;7.578;2022-07-15T03:17:50;2.37;;;1.20;;
47882;SDS011;37739;50.350;7.578;2022-07-15T03:20:19;2.07;;;1.30;;
47882;SDS011;37739;50.350;7.578;2022-07-15T03:22:45;1.97;;;1.50;;
47882;SDS011;37739;50.350;7.578;2022-07-15T03:25:10;2.23;;;1.33;;
47882;SDS011;37739;50.350;7.578;2022-07-15T03:27:36;2.23;;;1.33;;
47882;SDS011;37739;50.350;7.578;2022-07-15T03:30:01;4.30;;;1.60;;
47882;SDS011;37739;50.350;7.578;2022-07-15T03:32:28;3.40;;;1.50;;
47882;SDS011;37739;50.350;7.578;2022-07-15T03:34:53;2.50;;;1.47;;
47882;SDS011;37739;50.350;7.578;2022-07-15T03:37:24;2.93;;;1.60;;
47882;SDS011;37739;50.350;7.578;2022-07-15T03:39:49;1.70;;;1.27;;
47882;SDS011;37739;50.350;7.578;2022-07-15T03:42:15;4.40;;;1.50;;
47882;SDS011;37739;50.350;7.578;2022-07-15T03:44:40;3.03;;;1.97;;
47882;SDS011;37739;50.350;7.578;2022-07-15T03:47:05;1.77;;;1.33;;
47882;SDS011;37739;50.350;7.578;2022-07-15T03:49:31;2.30;;;1.30;;
47882;SDS011;37739;50.350;7.578;2022-07-15T03:52:01;2.30;;;1.50;;
47882;SDS011;37739;50.350;7.578;2022-07-15T03:54:28;2.13;;;1.60;;
47882;SDS011;37739;50.350;7.578;2022-07-15T03:56:54;2.30;;;1.70;;
47882;SDS011;37739;50.350;7.578;2022-07-15T03:59:19;3.07;;;1.30;;
47882;SDS011;37739;50.350;7.578;2022-07-15T04:01:48;2.57;;;1.57;;
47882;SDS011;37739;50.350;7.578;2022-07-15T04:04:13;2.13;;;1.30;;
47882;SDS011;37739;50.350;7.578;2022-07-15T04:06:39;3.13;;;1.20;;
47882;SDS011;37739;50.350;7.578;2022-07-15T04:09:06;2.00;;;1.60;;
47882;SDS011;37739;50.350;7.578;2022-07-15T04:11:32;2.60;;;1.50;;
47882;SDS011;37739;50.350;7.578;2022-07-15T04:14:00;2.00;;;1.50;;
47882;SDS011;37739;50.350;7.578;2022-07-15T04:16:25;2.23;;;1.47;;
47882;SDS011;37739;50.350;7.578;2022-07-15T04:18:50;3.07;;;2.07;;
47882;SDS011;37739;50.350;7.578;2022-07-15T04:21:18;5.40;;;1.70;;
47882;SDS011;37739;50.350;7.578;2022-07-15T04:23:43;1.60;;;1.50;;
47882;SDS011;37739;50.350;7.578;2022-07-15T04:26:09;2.90;;;1.50;;
47882;SDS011;37739;50.350;7.578;2022-07-15T04:28:34;2.60;;;1.97;;
47882;SDS011;37739;50.350;7.578;2022-07-15T04:30:59;2.40;;;1.60;;
47882;SDS011;37739;50.350;7.578;2022-07-15T04:33:25;3.90;;;1.60;;
47882;SDS011;37739;50.350;7.578;2022-07-15T04:35:50;2.80;;;1.80;;
47882;SDS011;37739;50.350;7.578;2022-07-15T04:38:18;4.83;;;1.80;;
47882;SDS011;37739;50.350;7.578;2022-07-15T04:40:48;2.60;;;1.70;;
47882;SDS011;37739;50.350;7.578;2022-07-15T04:43:18;3.40;;;2.07;;
47882;SDS011;37739;50.350;7.578;2022-07-15T04:45:44;1.90;;;1.60;;
47882;SDS011;37739;50.350;7.578;2022-07-15T04:48:09;3.13;;;1.80;;
47882;SDS011;37739;50.350;7.578;2022-07-15T04:50:53;5.00;;;1.60;;
47882;SDS011;37739;50.350;7.578;2022-07-15T04:53:19;2.60;;;1.70;;
47882;SDS011;37739;50.350;7.578;2022-07-15T04:55:46;2.93;;;1.80;;
47882;SDS011;37739;50.350;7.578;2022-07-15T04:58:11;2.80;;;1.97;;
47882;SDS011;37739;50.350;7.578;2022-07-15T05:00:43;1.83;;;1.50;;
47882;SDS011;37739;50.350;7.578;2022-07-15T05:03:09;2.60;;;1.80;;
47882;SDS011;37739;50.350;7.578;2022-07-15T05:05:34;2.30;;;1.80;;
47882;SDS011;37739;50.350;7.578;2022-07-15T05:08:00;2.17;;;1.47;;
47882;SDS011;37739;50.350;7.578;2022-07-15T05:10:25;5.30;;;1.73;;
47882;SDS011;37739;50.350;7.578;2022-07-15T05:12:51;3.20;;;1.90;;
47882;SDS011;37739;50.350;7.578;2022-07-15T05:15:16;3.00;;;1.70;;
47882;SDS011;37739;50.350;7.578;2022-07-15T05:17:44;2.87;;;1.73;;
47882;SDS011;37739;50.350;7.578;2022-07-15T05:20:12;4.03;;;1.87;;
47882;SDS011;37739;50.350;7.578;2022-07-15T05:22:37;4.63;;;1.73;;
47882;SDS011;37739;50.350;7.578;2022-07-15T05:25:06;3.80;;;1.90;;
47882;SDS011;37739;50.350;7.578;2022-07-15T05:27:33;2.43;;;1.60;;
47882;SDS011;37739;50.350;7.578;2022-07-15T05:29:59;4.40;;;1.60;;
47882;SDS011;37739;50.350;7.578;2022-07-15T05:32:25;4.73;;;2.10;;
47882;SDS011;37739;50.350;7.578;2022-07-15T05:34:50;2.47;;;1.80;;
47882;SDS011;37739;50.350;7.578;2022-07-15T05:37:16;4.17;;;1.73;;
47882;SDS011;37739;50.350;7.578;2022-07-15T05:39:44;2.63;;;1.60;;
47882;SDS011;37739;50.350;7.578;2022-07-15T05:42:19;2.60;;;1.90;;
47882;SDS011;37739;50.350;7.578;2022-07-15T05:44:45;4.50;;;2.03;;
47882;SDS011;37739;50.350;7.578;2022-07-15T05:47:10;2.80;;;1.57;;
47882;SDS011;37739;50.350;7.578;2022-07-15T05:49:36;3.50;;;2.03;;
47882;SDS011;37739;50.350;7.578;2022-07-15T05:52:03;3.17;;;1.80;;
47882;SDS011;37739;50.350;7.578;2022-07-15T05:54:29;4.07;;;2.43;;
47882;SDS011;37739;50.350;7.578;2022-07-15T05:56:59;3.83;;;1.90;;
47882;SDS011;37739;50.350;7.578;2022-07-15T05:59:24;3.90;;;2.10;;
47882;SDS011;37739;50.350;7.578;2022-07-15T06:01:50;2.60;;;1.80;;
47882;SDS011;37739;50.350;7.578;2022-07-15T06:04:17;2.80;;;1.90;;
47882;SDS011;37739;50.350;7.578;2022-07-15T06:06:43;4.20;;;2.33;;
47882;SDS011;37739;50.350;7.578;2022-07-15T06:09:08;2.90;;;1.73;;
47882;SDS011;37739;50.350;7.578;2022-07-15T06:11:35;2.17;;;1.80;;
47882;SDS011;37739;50.350;7.578;2022-07-15T06:14:03;2.90;;;2.10;;
47882;SDS011;37739;50.350;7.578;2022-07-15T06:16:31;4.23;;;2.30;;
47882;SDS011;37739;50.350;7.578;2022-07-15T06:18:56;5.83;;;2.40;;
47882;SDS011;37739;50.350;7.578;2022-07-15T06:21:26;3.97;;;1.80;;
47882;SDS011;37739;50.350;7.578;2022-07-15T06:23:54;2.70;;;1.90;;
47882;SDS011;37739;50.350;7.578;2022-07-15T06:26:19;3.60;;;1.90;;
47882;SDS011;37739;50.350;7.578;2022-07-15T06:28:44;3.43;;;1.97;;
47882;SDS011;37739;50.350;7.578;2022-07-15T06:31:10;2.10;;;1.90;;
47882;SDS011;37739;50.350;7.578;2022-07-15T06:33:37;4.27;;;1.90;;
47882;SDS011;37739;50.350;7.578;2022-07-15T06:36:03;6.70;;;2.30;;
47882;SDS011;37739;50.350;7.578;2022-07-15T06:38:30;5.17;;;2.57;;
47882;SDS011;37739;50.350;7.578;2022-07-15T06:40:56;3.90;;;2.20;;
47882;SDS011;37739;50.350;7.578;2022-07-15T06:43:21;3.23;;;2.13;;
47882;SDS011;37739;50.350;7.578;2022-07-15T06:45:46;4.00;;;1.77;;
47882;SDS011;37739;50.350;7.578;2022-07-15T06:48:14;4.90;;;2.20;;
47882;SDS011;37739;50.350;7.578;2022-07-15T06:50:40;3.63;;;2.27;;
47882;SDS011;37739;50.350;7.578;2022-07-15T06:53:10;4.30;;;2.33;;
47882;SDS011;37739;50.350;7.578;2022-07-15T06:55:35;4.90;;;2.57;;
47882;SDS011;37739;50.350;7.578;2022-07-15T06:58:00;3.00;;;2.00;;
47882;SDS011;37739;50.350;7.578;2022-07-15T07:00:26;3.80;;;2.57;;
47882;SDS011;37739;50.350;7.578;2022-07-15T07:02:53;2.90;;;1.80;;
47882;SDS011;37739;50.350;7.578;2022-07-15T07:05:21;5.23;;;1.90;;
47882;SDS011;37739;50.350;7.578;2022-07-15T07:07:46;2.47;;;1.70;;
47882;SDS011;37739;50.350;7.578;2022-07-15T07:10:14;5.30;;;2.60;;
47882;SDS011;37739;50.350;7.578;2022-07-15T07:12:44;4.17;;;2.20;;
47882;SDS011;37739;50.350;7.578;2022-07-15T07:15:09;4.40;;;1.60;;
47882;SDS011;37739;50.350;7.578;2022-07-15T07:17:35;3.30;;;2.57;;
47882;SDS011;37739;50.350;7.578;2022-07-15T07:20:00;3.07;;;1.77;;
47882;SDS011;37739;50.350;7.578;2022-07-15T07:22:25;3.73;;;2.20;;
47882;SDS011;37739;50.350;7.578;2022-07-15T07:24:51;4.03;;;2.00;;
47882;SDS011;37739;50.350;7.578;2022-07-15T07:27:18;3.27;;;1.73;;
47882;SDS011;37739;50.350;7.578;2022-07-15T07:29:43;2.37;;;2.10;;
47882;SDS011;37739;50.350;7.578;2022-07-15T07:32:09;3.93;;;2.20;;
47882;SDS011;37739;50.350;7.578;2022-07-15T07:34:34;4.60;;;2.57;;
47882;SDS011;37739;50.350;7.578;2022-07-15T07:37:02;2.67;;;1.80;;
47882;SDS011;37739;50.350;7.578;2022-07-15T07:39:29;2.60;;;1.80;;
47882;SDS011;37739;50.350;7.578;2022-07-15T07:41:57;2.60;;;1.67;;
47882;SDS011;37739;50.350;7.578;2022-07-15T07:44:25;4.40;;;2.30;;
47882;SDS011;37739;50.350;7.578;2022-07-15T07:46:55;4.13;;;1.90;;
47882;SDS011;37739;50.350;7.578;2022-07-15T07:49:21;3.70;;;2.20;;
47882;SDS011;37739;50.350;7.578;2022-07-15T07:51:49;5.20;;;2.03;;
47882;SDS011;37739;50.350;7.578;2022-07-15T07:54:14;6.47;;;2.57;;
47882;SDS011;37739;50.350;7.578;2022-07-15T07:56:39;3.17;;;2.10;;
47882;SDS011;37739;50.350;7.578;2022-07-15T07:59:04;2.70;;;1.80;;
47882;SDS011;37739;50.350;7.578;2022-07-15T08:01:30;2.40;;;1.80;;
47882;SDS011;37739;50.350;7.578;2022-07-15T08:03:55;3.63;;;1.80;;
47882;SDS011;37739;50.350;7.578;2022-07-15T08:06:21;3.40;;;1.80;;
47882;SDS011;37739;50.350;7.578;2022-07-15T08:08:47;2.80;;;1.97;;
47882;SDS011;37739;50.350;7.578;2022-07-15T08:11:13;3.57;;;2.10;;
47882;SDS011;37739;50.350;7.578;2022-07-15T08:13:39;3.07;;;2.20;;
47882;SDS011;37739;50.350;7.578;2022-07-15T08:16:04;3.40;;;2.57;;
47882;SDS011;37739;50.350;7.578;2022-07-15T08:18:31;4.43;;;2.30;;
47882;SDS011;37739;50.350;7.578;2022-07-15T08:20:58;3.63;;;2.13;;
47882;SDS011;37739;50.350;7.578;2022-07-15T08:23:24;5.70;;;2.70;;
47882;SDS011;37739;50.350;7.578;2022-07-15T08:25:52;4.23;;;2.17;;
47882;SDS011;37739;50.350;7.578;2022-07-15T08:28:17;4.17;;;1.80;;
47882;SDS011;37739;50.350;7.578;2022-07-15T08:30:43;2.80;;;1.50;;
47882;SDS011;37739;50.350;7.578;2022-07-15T08:33:14;4.27;;;2.10;;
47882;SDS011;37739;50.350;7.578;2022-07-15T08:35:39;2.53;;;1.87;;
47882;SDS011;37739;50.350;7.578;2022-07-15T08:38:08;3.63;;;1.90;;
47882;SDS011;37739;50.350;7.578;2022-07-15T08:40:36;2.23;;;1.40;;
47882;SDS011;37739;50.350;7.578;2022-07-15T08:43:05;3.47;;;1.93;;
47882;SDS011;37739;50.350;7.578;2022-07-15T08:45:32;1.73;;;1.37;;
47882;SDS011;37739;50.350;7.578;2022-07-15T08:47:59;3.03;;;1.77;;
47882;SDS011;37739;50.350;7.578;2022-07-15T08:50:26;2.20;;;1.50;;
47882;SDS011;37739;50.350;7.578;2022-07-15T08:52:53;4.40;;;2.57;;
47882;SDS011;37739;50.350;7.578;2022-07-15T08:55:20;2.27;;;1.70;;
47882;SDS011;37739;50.350;7.578;2022-07-15T08:57:48;3.53;;;1.97;;
47882;SDS011;37739;50.350;7.578;2022-07-15T09:00:16;5.00;;;2.13;;
47882;SDS011;37739;50.350;7.578;2022-07-15T09:02:44;3.30;;;1.90;;
47882;SDS011;37739;50.350;7.578;2022-07-15T09:10:25;3.20;;;1.80;;
47882;SDS011;37739;50.350;7.578;2022-07-15T09:13:15;3.07;;;1.83;;
47882;SDS011;37739;50.350;7.578;2022-07-15T09:15:46;2.80;;;1.40;;
47882;SDS011;37739;50.350;7.578;2022-07-15T09:18:13;2.20;;;1.60;;
47882;SDS011;37739;50.350;7.578;2022-07-15T09:20:40;2.67;;;1.73;;
47882;SDS011;37739;50.350;7.578;2022-07-15T09:23:07;4.07;;;1.50;;
47882;SDS011;37739;50.350;7.578;2022-07-15T09:25:36;2.67;;;1.93;;
47882;SDS011;37739;50.350;7.578;2022-07-15T09:28:05;2.27;;;1.40;;
47882;SDS011;37739;50.350;7.578;2022-07-15T09:30:36;2.50;;;1.50;;
47882;SDS011;37739;50.350;7.578;2022-07-15T09:33:28;2.87;;;1.20;;
47882;SDS011;37739;50.350;7.578;2022-07-15T09:36:07;2.90;;;1.67;;
47882;SDS011;37739;50.350;7.578;2022-07-15T09:41:06;2.10;;;1.70;;
47882;SDS011;37739;50.350;7.578;2022-07-15T09:43:43;2.93;;;1.70;;
47882;SDS011;37739;50.350;7.578;2022-07-15T09:46:19;2.17;;;1.40;;
47882;SDS011;37739;50.350;7.578;2022-07-15T09:48:48;3.03;;;2.00;;
47882;SDS011;37739;50.350;7.578;2022-07-15T09:51:18;2.73;;;1.90;;
47882;SDS011;37739;50.350;7.578;2022-07-15T09:53:46;3.97;;;2.43;;
47882;SDS011;37739;50.350;7.578;2022-07-15T09:56:15;3.43;;;1.63;;
47882;SDS011;37739;50.350;7.578;2022-07-15T09:58:47;2.97;;;2.40;;
47882;SDS011;37739;50.350;7.578;2022-07-15T10:01:15;3.80;;;2.10;;
47882;SDS011;37739;50.350;7.578;2022-07-15T10:03:43;3.73;;;1.80;;
47882;SDS011;37739;50.350;7.578;2022-07-15T10:06:09;2.83;;;2.00;;
47882;SDS011;37739;50.350;7.578;2022-07-15T10:08:43;2.77;;;2.10;;
47882;SDS011;37739;50.350;7.578;2022-07-15T10:11:11;3.10;;;2.20;;
47882;SDS011;37739;50.350;7.578;2022-07-15T10:13:54;4.10;;;2.13;;
47882;SDS011;37739;50.350;7.578;2022-07-15T10:17:36;2.03;;;1.70;;
47882;SDS011;37739;50.350;7.578;2022-07-15T10:28:22;2.50;;;1.57;;
47882;SDS011;37739;50.350;7.578;2022-07-15T10:36:26;2.97;;;1.60;;
47882;SDS011;37739;50.350;7.578;2022-07-15T10:39:06;1.90;;;1.60;;
47882;SDS011;37739;50.350;7.578;2022-07-15T10:44:20;3.27;;;1.90;;
47882;SDS011;37739;50.350;7.578;2022-07-15T10:46:46;2.70;;;1.60;;
47882;SDS011;37739;50.350;7.578;2022-07-15T10:54:08;1.90;;;1.33;;
47882;SDS011;37739;50.350;7.578;2022-07-15T10:59:28;2.03;;;1.40;;
47882;SDS011;37739;50.350;7.578;2022-07-15T11:04:29;1.87;;;1.57;;
47882;SDS011;37739;50.350;7.578;2022-07-15T11:17:39;2.40;;;1.27;;
47882;SDS011;37739;50.350;7.578;2022-07-15T11:20:10;2.13;;;1.10;;
47882;SDS011;37739;50.350;7.578;2022-07-15T11:22:44;2.70;;;1.20;;
47882;SDS011;37739;50.350;7.578;2022-07-15T11:28:29;1.33;;;1.17;;
47882;SDS011;37739;50.350;7.578;2022-07-15T11:30:39;2.87;;;1.30;;
47882;SDS011;37739;50.350;7.578;2022-07-15T11:33:12;2.00;;;1.23;;
47882;SDS011;37739;50.350;7.578;2022-07-15T11:35:48;2.20;;;1.30;;
47882;SDS011;37739;50.350;7.578;2022-07-15T11:38:19;2.93;;;1.50;;
47882;SDS011;37739;50.350;7.578;2022-07-15T11:40:48;1.33;;;1.10;;
47882;SDS011;37739;50.350;7.578;2022-07-15T11:43:38;1.27;;;0.90;;
47882;SDS011;37739;50.350;7.578;2022-07-15T11:46:23;2.23;;;1.77;;
47882;SDS011;37739;50.350;7.578;2022-07-15T11:48:54;2.30;;;1.63;;
47882;SDS011;37739;50.350;7.578;2022-07-15T11:51:39;1.53;;;1.30;;
47882;SDS011;37739;50.350;7.578;2022-07-15T11:54:12;1.67;;;1.13;;
47882;SDS011;37739;50.350;7.578;2022-07-15T11:56:38;2.00;;;0.93;;
47882;SDS011;37739;50.350;7.578;2022-07-15T11:59:05;2.07;;;1.23;;
47882;SDS011;37739;50.350;7.578;2022-07-15T12:01:31;4.90;;;1.10;;
47882;SDS011;37739;50.350;7.578;2022-07-15T12:03:58;1.90;;;1.00;;
47882;SDS011;37739;50.350;7.578;2022-07-15T12:06:31;3.33;;;1.00;;
47882;SDS011;37739;50.350;7.578;2022-07-15T12:09:05;1.73;;;1.07;;
47882;SDS011;37739;50.350;7.578;2022-07-15T12:11:34;3.73;;;1.00;;
47882;SDS011;37739;50.350;7.578;2022-07-15T12:16:36;1.60;;;0.90;;
47882;SDS011;37739;50.350;7.578;2022-07-15T12:19:08;1.87;;;1.17;;
47882;SDS011;37739;50.350;7.578;2022-07-15T12:21:34;1.93;;;0.90;;
47882;SDS011;37739;50.350;7.578;2022-07-15T12:24:05;2.40;;;1.00;;
47882;SDS011;37739;50.350;7.578;2022-07-15T12:26:39;1.67;;;0.90;;
47882;SDS011;37739;50.350;7.578;2022-07-15T12:29:07;2.33;;;1.10;;
47882;SDS011;37739;50.350;7.578;2022-07-15T12:31:34;2.90;;;1.30;;
47882;SDS011;37739;50.350;7.578;2022-07-15T12:34:00;3.63;;;1.47;;
47882;SDS011;37739;50.350;7.578;2022-07-15T12:36:30;2.40;;;1.20;;
47882;SDS011;37739;50.350;7.578;2022-07-15T12:39:10;2.10;;;1.13;;
47882;SDS011;37739;50.350;7.578;2022-07-15T12:41:41;2.83;;;1.20;;
47882;SDS011;37739;50.350;7.578;2022-07-15T12:44:10;2.53;;;1.00;;
47882;SDS011;37739;50.350;7.578;2022-07-15T12:54:43;1.93;;;1.27;;
47882;SDS011;37739;50.350;7.578;2022-07-15T12:57:28;1.90;;;1.10;;
47882;SDS011;37739;50.350;7.578;2022-07-15T13:00:31;1.57;;;0.80;;
47882;SDS011;37739;50.350;7.578;2022-07-15T13:03:33;1.57;;;0.93;;
47882;SDS011;37739;50.350;7.578;2022-07-15T13:10:48;2.00;;;1.00;;
47882;SDS011;37739;50.350;7.578;2022-07-15T13:13:15;1.30;;;1.10;;
47882;SDS011;37739;50.350;7.578;2022-07-15T13:15:43;1.60;;;1.00;;
47882;SDS011;37739;50.350;7.578;2022-07-15T13:18:10;1.57;;;1.00;;
47882;SDS011;37739;50.350;7.578;2022-07-15T13:20:37;2.97;;;1.27;;
47882;SDS011;37739;50.350;7.578;2022-07-15T13:23:03;1.20;;;0.80;;
47882;SDS011;37739;50.350;7.578;2022-07-15T13:25:29;1.33;;;1.00;;
47882;SDS011;37739;50.350;7.578;2022-07-15T13:27:55;2.13;;;1.37;;
47882;SDS011;37739;50.350;7.578;2022-07-15T13:30:21;2.50;;;1.40;;
47882;SDS011;37739;50.350;7.578;2022-07-15T13:32:49;3.50;;;1.20;;
47882;SDS011;37739;50.350;7.578;2022-07-15T13:35:15;2.20;;;1.20;;
47882;SDS011;37739;50.350;7.578;2022-07-15T13:37:45;2.43;;;1.30;;
47882;SDS011;37739;50.350;7.578;2022-07-15T13:40:11;2.03;;;1.40;;
47882;SDS011;37739;50.350;7.578;2022-07-15T13:42:37;2.57;;;1.30;;
47882;SDS011;37739;50.350;7.578;2022-07-15T13:45:04;1.50;;;1.20;;
47882;SDS011;37739;50.350;7.578;2022-07-15T13:47:30;1.83;;;1.43;;
47882;SDS011;37739;50.350;7.578;2022-07-15T13:49:56;1.30;;;1.20;;
47882;SDS011;37739;50.350;7.578;2022-07-15T13:52:41;2.23;;;1.50;;
47882;SDS011;37739;50.350;7.578;2022-07-15T13:55:09;2.70;;;1.70;;
47882;SDS011;37739;50.350;7.578;2022-07-15T13:57:36;2.00;;;1.50;;
47882;SDS011;37739;50.350;7.578;2022-07-15T14:00:03;2.70;;;1.60;;
47882;SDS011;37739;50.350;7.578;2022-07-15T14:02:30;2.07;;;1.60;;
47882;SDS011;37739;50.350;7.578;2022-07-15T14:04:55;2.03;;;1.40;;
47882;SDS011;37739;50.350;7.578;2022-07-15T14:07:25;4.07;;;1.70;;
47882;SDS011;37739;50.350;7.578;2022-07-15T14:09:51;2.10;;;1.40;;
47882;SDS011;37739;50.350;7.578;2022-07-15T14:12:19;2.57;;;1.50;;
47882;SDS011;37739;50.350;7.578;2022-07-15T14:14:44;1.87;;;1.27;;
47882;SDS011;37739;50.350;7.578;2022-07-15T14:17:10;2.43;;;1.60;;
47882;SDS011;37739;50.350;7.578;2022-07-15T14:19:38;2.93;;;1.40;;
47882;SDS011;37739;50.350;7.578;2022-07-15T14:22:03;3.70;;;1.43;;
47882;SDS011;37739;50.350;7.578;2022-07-15T14:24:28;2.87;;;1.73;;
47882;SDS011;37739;50.350;7.578;2022-07-15T14:26:54;2.30;;;1.50;;
47882;SDS011;37739;50.350;7.578;2022-07-15T14:29:19;2.90;;;1.70;;
47882;SDS011;37739;50.350;7.578;2022-07-15T14:31:49;2.13;;;1.77;;
47882;SDS011;37739;50.350;7.578;2022-07-15T14:34:14;2.30;;;1.93;;
47882;SDS011;37739;50.350;7.578;2022-07-15T14:36:40;1.67;;;1.57;;
47882;SDS011;37739;50.350;7.578;2022-07-15T14:39:06;2.10;;;1.90;;
47882;SDS011;37739;50.350;7.578;2022-07-15T14:41:31;1.83;;;1.53;;
47882;SDS011;37739;50.350;7.578;2022-07-15T14:43:57;3.10;;;1.63;;
47882;SDS011;37739;50.350;7.578;2022-07-15T14:46:25;2.60;;;1.57;;
47882;SDS011;37739;50.350;7.578;2022-07-15T14:48:50;1.60;;;1.50;;
47882;SDS011;37739;50.350;7.578;2022-07-15T14:51:15;1.60;;;1.40;;
47882;SDS011;37739;50.350;7.578;2022-07-15T14:53:44;2.50;;;1.47;;
47882;SDS011;37739;50.350;7.578;2022-07-15T14:56:12;2.03;;;1.30;;
47882;SDS011;37739;50.350;7.578;2022-07-15T14:58:40;1.73;;;1.60;;
47882;SDS011;37739;50.350;7.578;2022-07-15T15:01:05;2.83;;;1.53;;
47882;SDS011;37739;50.350;7.578;2022-07-15T15:03:33;1.60;;;1.50;;
47882;SDS011;37739;50.350;7.578;2022-07-15T15:05:58;2.43;;;1.70;;
47882;SDS011;37739;50.350;7.578;2022-07-15T15:08:26;2.07;;;1.70;;
47882;SDS011;37739;50.350;7.578;2022-07-15T15:10:51;2.90;;;1.90;;
47882;SDS011;37739;50.350;7.578;2022-07-15T15:13:17;2.50;;;1.70;;
47882;SDS011;37739;50.350;7.578;2022-07-15T15:15:45;2.00;;;1.80;;
47882;SDS011;37739;50.350;7.578;2022-07-15T15:18:10;2.43;;;1.80;;
47882;SDS011;37739;50.350;7.578;2022-07-15T15:20:38;2.73;;;1.70;;
47882;SDS011;37739;50.350;7.578;2022-07-15T15:23:05;3.03;;;2.00;;
47882;SDS011;37739;50.350;7.578;2022-07-15T15:25:31;2.40;;;1.60;;
47882;SDS011;37739;50.350;7.578;2022-07-15T15:28:14;1.93;;;1.60;;
47882;SDS011;37739;50.350;7.578;2022-07-15T15:30:42;2.30;;;1.70;;
47882;SDS011;37739;50.350;7.578;2022-07-15T15:33:09;1.60;;;1.40;;
47882;SDS011;37739;50.350;7.578;2022-07-15T15:35:35;2.10;;;1.90;;
47882;SDS011;37739;50.350;7.578;2022-07-15T15:38:00;2.30;;;2.10;;
47882;SDS011;37739;50.350;7.578;2022-07-15T15:40:25;2.67;;;2.00;;
47882;SDS011;37739;50.350;7.578;2022-07-15T15:42:51;2.93;;;1.90;;
47882;SDS011;37739;50.350;7.578;2022-07-15T15:45:18;3.60;;;2.00;;
47882;SDS011;37739;50.350;7.578;2022-07-15T15:47:43;2.20;;;1.97;;
47882;SDS011;37739;50.350;7.578;2022-07-15T15:50:09;3.27;;;2.50;;
47882;SDS011;37739;50.350;7.578;2022-07-15T15:52:35;3.00;;;1.80;;
47882;SDS011;37739;50.350;7.578;2022-07-15T15:55:00;2.80;;;1.87;;
47882;SDS011;37739;50.350;7.578;2022-07-15T15:57:25;2.27;;;1.87;;